Estações Meteorológicas Convencionais MB

Ilha da Trindade
Data Hora VISIB (KM) Cobertura(OITAVOS) DD Vento(º) Intensidade (NÓS) TEMP DO AR (º) Temp do Ponto de Orvalho(ºC) Pressão (hPa) TEMP MAX (ºC) TEMP MIN (ºC)
30/05/2020 00:00 20/50 130 12 23.50 15.90 1018.70 26.50
29/05/2020 18:00 50 1 140 3 25.00 15.90 1017.00
29/05/2020 12:00 50 6 110 6 26.00 15.40 1018.70 23.00
27/05/2020 18:00 10/20 8 170 11 24.00 21.90 1012.50
27/05/2020 12:00 20/50 8 330 18 27.00 25.00 1014.30 25.50
27/05/2020 00:00 20/50 350 25 26.00 21.80 1014.50 28.00
26/05/2020 18:00 50 5 350 17 26.50 22.40 1014.50
26/05/2020 12:00 50 4 10 16 28.00 22.50 1018.00 25.00
25/05/2020 00:00 20/50 90 14 25.00 22.20 1022.00 28.00
23/05/2020 18:00 50 4 100 11 27.00 22.90 1020.00
22/05/2020 18:00 20/50 7 90 15 26.50 21.70 1020.70
22/05/2020 12:00 20/50 7 110 15 27.00 20.30 1023.00 25.00
20/05/2020 00:00 20/50 140 13 24.50 17.90 1022.00 27.50
19/05/2020 18:00 50 7 140 14 26.00 19.50 1020.00
19/05/2020 12:00 50 5 140 12 26.00 18.00 1021.10 24.00
18/05/2020 00:00 20/50 150 12 25.00 20.80 1018.30 27.50
17/05/2020 18:00 50 6 130 3 26.00 21.80 1015.90
17/05/2020 12:00 50 7 70 3 27.50 22.00 1017.50 25.00
16/05/2020 00:00 20/50 24.00 18.90 1017.30 28.00
15/05/2020 18:00 50 6 330 8 27.50 21.30 1015.20
15/05/2020 12:00 50 4 350 6 26.50 20.90 1017.70 25.00
14/05/2020 18:00 50 3 50 9 27.00 21.40 1015.50
14/05/2020 12:00 20/50 7 300 6 25.00 20.80 1019.00 25.00
11/05/2020 00:00 10/20 160 25 24.50 17.90 1020.50 26.00
10/05/2020 18:00 50 4 150 32 26.00 16.50 1019.50
10/05/2020 12:00 20/50 4 160 17 26.00 17.10 1021.00 23.00
10/05/2020 00:00 10/20 160 25 24.00 16.50 1019.50 25.00
09/05/2020 18:00 10/20 8 170 18 24.00 21.20 1017.70
09/05/2020 12:00 20/50 8 130 14 24.00 19.70 1019.00 23.50
06/05/2020 00:00 50 23.00 147.40 1017.90 27.00
05/05/2020 18:00 50 6 150 14 26.00 17.10 1015.00
05/05/2020 12:00 50 2 140 7 26.50 16.00 1016.30 25.00
03/05/2020 00:00 50 10 5 26.00 20.30 1017.20 28.00
02/05/2020 18:00 50 1 60 5 28.00 21.00 1014.50
02/05/2020 12:00 50 3 40 4 27.00 20.60 1017.50 25.50
01/05/2020 00:00 20/50 0 40 1 25.00 19.20 1018.50 30.00
30/04/2020 18:00 50 4 90 9 28.00 21.00 1016.50
30/04/2020 12:00 50 2 150 9 28.00 21.00 1019.00 25.00
30/04/2020 00:00 20/50 130 15 25.50 20.60 1018.70 28.00
29/04/2020 18:00 50 3 120 15 27.00 19.90 1017.30
29/04/2020 12:00 50 5 130 30 27.00 21.40 1019.40 25.00
27/04/2020 00:00 10/20 180 2 24.00 22.60 1017.00 27.50
26/04/2020 18:00 20/50 6 120 7 27.00 22.90 1014.50
26/04/2020 12:00 20/50 6 170 13 27.00 24.30 1016.50 26.00
26/04/2020 00:00 10/20 0 150 10 26.00 21.80 1016.50 30.00
25/04/2020 18:00 50 4 140 25 28.50 22.40 1014.50
25/04/2020 12:00 50 4 160 15 28.00 22.50 1015.50 25.00
23/04/2020 00:00 10/20 0 340 14 25.00 22.20 1013.50 29.00
22/04/2020 18:00 20/50 7 320 12 25.00 22.70 1012.50
22/04/2020 12:00 20/50 6 20 10 29.00 22.90 1014.50 27.00
21/04/2020 00:00 10/20 0 30 4 27.00 21.40 1016.50 29.50
20/04/2020 18:00 50 4 50 9 29.00 22.00 1014.00
20/04/2020 12:00 20/50 5 40 8 29.50 22.70 1015.60 27.00
19/04/2020 00:00 20/50 27.00 21.40 1016.50 29.50
18/04/2020 18:00 50 4 310 4 27.50 22.00 1014.50
18/04/2020 12:00 50 3 90 2 28.00 24.00 1016.40 26.00
18/04/2020 00:00 20/50 0 0 26.00 23.30 1016.50 30.00
17/04/2020 18:00 20/50 5 120 4 28.00 24.70 1014.90
17/04/2020 12:00 50 3 80 7 29.00 22.90 1017.50 27.00
15/04/2020 00:00 20/50 0 40 2 26.50 23.10 1014.50 31.00
14/04/2020 18:00 10/20 6 0 0 29.00 23.60 1012.50
14/04/2020 12:00 20/50 5 130 10 30.00 24.70 1014.00 26.50
14/04/2020 00:00 20/50 170 6 26.50 22.40 1014.50 29.50
13/04/2020 18:00 50 6 60 2 28.50 22.40 1012.60
13/04/2020 12:00 50 3 40 8 29.00 22.10 1015.00 27.00
11/04/2020 00:00 10/20 8 170 8 27.00 22.00 1015.00 31.00
10/04/2020 18:00 20/50 6 200 7 228.00 24.00 1013.00
10/04/2020 12:00 50 6 90 3 30.00 26.10 1013.50 26.00
08/04/2020 00:00 20/50 140 12 27.00 22.90 1014.50 30.00
07/04/2020 18:00 50 7 120 10 29.00 23.60 1012.60
07/04/2020 12:00 50 6 110 10 29.00 23.60 1015.00 26.00
07/04/2020 00:00 10/20 7 170 5 26.00 20.30 1015.50 31.00
06/04/2020 18:00 50 2 130 14 28.00 21.00 1013.50
06/04/2020 12:00 50 2 170 18 28.00 19.40 1015.20 26.00
06/04/2020 00:00 20/50 160 7 27.00 24.10 1014.50 29.00
05/04/2020 18:00 20/50 8 140 10 28.00 24.00 1011.90
05/04/2020 12:00 10/20 8 310 11 26.50 25.20 1013.50 26.00
02/04/2020 18:00 50 3 120 5 29.00 22.10 1013.10
02/04/2020 12:00 50 4 140 8 26.00 20.30 1016.60 22.00
02/04/2020 00:00 20/50 170 10 27.00 19.90 1015.50 28.00
01/04/2020 18:00 10/20 7 120 5 26.50 24.50 1013.00
01/04/2020 12:00 50 6 140 7 28.00 24.00 1014.50 24.00
30/03/2020 00:00 20/50 120 5 27.00 23.60 1017.00 30.00
29/03/2020 18:00 20/50 5 360 2 30.00 24.00 1015.50
29/03/2020 00:00 10/20 3 120 9 27.50 24.20 1017.50 30.00
28/03/2020 18:00 20/50 3 70 6 30.00 24.00 1015.50
28/03/2020 12:00 2/4 7 110 6 29.00 24.30 1016.50 27.00
25/03/2020 00:00 4/10 8 180 5 27.00 22.90 1012.50 28.00
24/03/2020 18:00 4/10 7 170 7 27.00 23.60 1010.50
24/03/2020 00:00 0,5/1 8 180 11 27.00 24.70 1012.50 28.00
23/03/2020 18:00 1/2 8 170 7 27.50 25.50 1010.50
23/03/2020 12:00 2/4 8 330 15 28.00 26.70 1011.50 25.00
20/03/2020 00:00 20/50 30 4 27.00 22.90 1013.50 28.00
19/03/2020 18:00 20/50 6 10 7 28.00 24.00 1012.00
19/03/2020 12:00 4/10 8 20 8 25.50 24.90 1014.50 26.00
19/03/2020 00:00 10/20 20 5 26.00 24.00 1015.00 30.00
18/03/2020 18:00 20/50 4 0 0 30.00 25.40 1013.50
18/03/2020 12:00 20/50 5 90 3 29.00 25.00 1015.50 26.00
16/03/2020 00:00 20/50 110 8 27.50 24.80 1016.00 31.00
15/03/2020 18:00 10/20 6 110 2 29.00 23.60 1014.50